Terminal Aerodrome Forecast
Issued by NWS

Home | Current Version | Previous Version | Text Only | Print | Product List | Glossary On
Versions: 1 2 3 4 5 6 7 8 9 10 11 12 13
000
FTUS46 KLOX 270000 AAA
TAFSBA
TAF AMD
KSBA 270024Z 2700/2724 13005KT P6SM VCSH SCT080 BKN120
     FM270200 11005KT P6SM -SHRA BKN080 OVC120
     FM270400 10004KT 6SM -SHRA BR SCT035 OVC070
     FM271200 VRB03KT P6SM VCSH BKN080 BKN120
     FM271400 18006KT P6SM SCT080
     FM272000 23008KT P6SM SKC=

USA.gov is the U.S. government's official web portal to all federal, state and local government web resources and services.